Time;durP1;ratioP1;P1;durP2;ratioP2;P2;SDS_P1;SDS_P2;PMS_P1;PMS_P2;Temp;Humidity;BMP_temperature;BMP_pressure;BME280_temperature;BME280_humidity;BME280_pressure;Samples;Min_cycle;Max_cycle;Signal;HPM_P1;HPM_P2
2022/09/30 00:01:09;;;;;;;2.38;2.00;;;;;;;;;;5029686;28;20226;-84
2022/09/30 00:03:37;;;;;;;1.70;1.60;;;;;;;;;;5034460;28;20218;-84
2022/09/30 00:06:07;;;;;;;1.42;1.33;;;;;;;;;;5042907;28;20289;-83
2022/09/30 00:08:35;;;;;;;2.03;1.80;;;;;;;;;;5038389;28;20579;-83
2022/09/30 00:11:05;;;;;;;2.05;1.80;;;;;;;;;;5037706;28;20296;-84
2022/09/30 00:13:33;;;;;;;1.75;1.63;;;;;;;;;;5040381;28;20577;-84
2022/09/30 00:16:01;;;;;;;2.05;1.92;;;;;;;;;;5034866;28;20305;-83
2022/09/30 00:18:30;;;;;;;2.50;1.95;;;;;;;;;;5033946;28;20194;-84
2022/09/30 00:20:58;;;;;;;2.40;2.20;;;;;;;;;;5046720;28;20204;-84
2022/09/30 00:23:26;;;;;;;2.15;2.05;;;;;;;;;;5033523;28;20215;-83
2022/09/30 00:26:00;;;;;;;1.90;1.80;;;;;;;;;;5032650;28;20733;-84
2022/09/30 00:28:27;;;;;;;2.95;2.17;;;;;;;;;;5019648;28;20558;-84
2022/09/30 00:30:58;;;;;;;1.92;1.83;;;;;;;;;;5045308;28;20209;-83
2022/09/30 00:33:25;;;;;;;2.67;2.33;;;;;;;;;;5051100;28;20642;-84
2022/09/30 00:35:54;;;;;;;2.00;1.90;;;;;;;;;;5044491;28;20226;-83
2022/09/30 00:38:21;;;;;;;1.90;1.75;;;;;;;;;;5037469;28;20286;-83
2022/09/30 00:40:50;;;;;;;2.00;1.90;;;;;;;;;;5039687;28;20697;-84
2022/09/30 00:43:20;;;;;;;1.30;1.30;;;;;;;;;;5042817;28;20202;-83
2022/09/30 00:45:51;;;;;;;1.38;1.27;;;;;;;;;;5030930;28;20203;-84
2022/09/30 00:48:20;;;;;;;1.80;1.70;;;;;;;;;;5029706;28;20204;-84
2022/09/30 00:50:54;;;;;;;1.75;1.42;;;;;;;;;;5033066;28;20199;-83
2022/09/30 00:53:28;;;;;;;1.45;1.35;;;;;;;;;;5041687;28;20199;-83
2022/09/30 00:55:59;;;;;;;1.60;1.50;;;;;;;;;;5035645;28;20603;-84
2022/09/30 00:58:31;;;;;;;1.30;1.20;;;;;;;;;;5034557;28;20212;-84
2022/09/30 01:01:00;;;;;;;1.30;1.20;;;;;;;;;;5033896;28;20206;-83
2022/09/30 01:03:31;;;;;;;1.10;1.00;;;;;;;;;;5039502;28;20249;-83
2022/09/30 01:05:58;;;;;;;1.80;1.70;;;;;;;;;;5038882;28;20545;-84
2022/09/30 01:08:28;;;;;;;1.30;1.20;;;;;;;;;;5045791;28;20201;-83
2022/09/30 01:10:55;;;;;;;1.17;1.17;;;;;;;;;;5043900;28;20206;-84
2022/09/30 01:13:26;;;;;;;1.73;1.63;;;;;;;;;;5031947;28;20728;-84
2022/09/30 01:16:26;;;;;;;2.10;1.50;;;;;;;;;;5028819;28;20330;-84
2022/09/30 01:19:13;;;;;;;2.47;2.05;;;;;;;;;;5029247;28;20207;-84
2022/09/30 01:22:14;;;;;;;1.77;1.67;;;;;;;;;;5044804;28;20258;-83
2022/09/30 01:25:44;;;;;;;2.00;1.90;;;;;;;;;;5029062;28;20222;-84
2022/09/30 01:28:47;;;;;;;2.15;1.95;;;;;;;;;;4958289;28;20207;-85
2022/09/30 01:31:41;;;;;;;3.70;1.80;;;;;;;;;;5017968;28;20204;-84
2022/09/30 01:34:16;;;;;;;1.67;1.58;;;;;;;;;;5044585;28;20226;-85
2022/09/30 01:36:59;;;;;;;2.65;2.45;;;;;;;;;;5042422;28;20595;-84
2022/09/30 01:39:37;;;;;;;2.33;2.05;;;;;;;;;;5033131;28;20202;-84
2022/09/30 01:42:13;;;;;;;2.42;2.22;;;;;;;;;;5043466;28;20194;-85
2022/09/30 01:44:49;;;;;;;2.33;2.03;;;;;;;;;;5026712;28;20222;-84
2022/09/30 01:47:23;;;;;;;1.98;1.88;;;;;;;;;;5049146;28;20554;-84
2022/09/30 01:49:54;;;;;;;1.98;1.77;;;;;;;;;;5034731;28;20613;-84
2022/09/30 01:52:24;;;;;;;2.55;1.42;;;;;;;;;;5032921;28;20202;-84
2022/09/30 01:54:59;;;;;;;1.90;1.80;;;;;;;;;;5039901;28;20222;-84
2022/09/30 01:57:31;;;;;;;1.60;1.50;;;;;;;;;;5040359;28;20284;-84
2022/09/30 02:00:05;;;;;;;1.83;1.73;;;;;;;;;;5034738;28;20194;-84
2022/09/30 02:02:37;;;;;;;2.10;2.00;;;;;;;;;;5032905;28;20198;-84
2022/09/30 02:05:09;;;;;;;2.35;2.20;;;;;;;;;;5035401;28;20660;-84
2022/09/30 02:07:40;;;;;;;2.47;2.28;;;;;;;;;;5043568;28;20197;-84
2022/09/30 02:10:12;;;;;;;2.25;2.05;;;;;;;;;;5034253;28;20209;-84
2022/09/30 02:12:46;;;;;;;2.78;2.47;;;;;;;;;;5034449;28;20201;-83
2022/09/30 02:15:17;;;;;;;1.95;1.85;;;;;;;;;;5033613;28;20222;-84
2022/09/30 02:17:49;;;;;;;1.90;1.80;;;;;;;;;;5038899;28;20231;-85
2022/09/30 02:20:20;;;;;;;2.55;2.00;;;;;;;;;;5037271;28;20198;-84
2022/09/30 02:22:50;;;;;;;2.05;1.92;;;;;;;;;;5041922;28;20309;-85
2022/09/30 02:25:22;;;;;;;1.95;1.83;;;;;;;;;;5033821;28;20665;-83
2022/09/30 02:27:54;;;;;;;1.90;1.80;;;;;;;;;;5042007;28;20212;-84
2022/09/30 02:30:21;;;;;;;1.40;1.30;;;;;;;;;;5048447;28;20213;-85
2022/09/30 02:32:52;;;;;;;1.00;1.00;;;;;;;;;;5019458;28;20902;-84
2022/09/30 02:35:24;;;;;;;0.95;0.95;;;;;;;;;;5038822;28;20598;-84
2022/09/30 02:37:54;;;;;;;1.00;1.00;;;;;;;;;;5045409;28;20218;-84
2022/09/30 02:40:27;;;;;;;1.83;1.70;;;;;;;;;;5033564;28;20204;-84
2022/09/30 02:42:54;;;;;;;1.08;1.08;;;;;;;;;;5014047;28;20291;-84
2022/09/30 02:45:24;;;;;;;1.27;1.17;;;;;;;;;;5030310;28;20321;-84
2022/09/30 02:48:05;;;;;;;1.00;1.00;;;;;;;;;;5035261;28;20603;-85
2022/09/30 02:50:36;;;;;;;1.00;1.00;;;;;;;;;;5036672;28;20209;-85
2022/09/30 02:53:17;;;;;;;1.15;1.15;;;;;;;;;;5037569;28;20205;-85
2022/09/30 02:56:03;;;;;;;1.20;1.10;;;;;;;;;;5040279;28;20240;-84
2022/09/30 02:58:32;;;;;;;1.00;1.00;;;;;;;;;;5037149;28;20214;-85
2022/09/30 03:01:00;;;;;;;1.00;1.00;;;;;;;;;;5034130;28;20659;-84
2022/09/30 03:03:32;;;;;;;1.67;1.20;;;;;;;;;;5033061;28;20305;-84
2022/09/30 03:06:00;;;;;;;1.80;1.70;;;;;;;;;;5039196;28;20204;-85
2022/09/30 03:08:27;;;;;;;1.60;1.50;;;;;;;;;;5038488;28;20237;-84
2022/09/30 03:10:55;;;;;;;2.50;1.63;;;;;;;;;;5033431;28;20466;-84
2022/09/30 03:14:01;;;;;;;1.85;1.50;;;;;;;;;;5035034;28;20202;-84
2022/09/30 03:16:47;;;;;;;1.83;1.73;;;;;;;;;;5028046;28;20578;-84
2022/09/30 03:19:36;;;;;;;1.27;1.27;;;;;;;;;;5022587;28;20201;-84
2022/09/30 03:22:23;;;;;;;1.25;1.20;;;;;;;;;;5024521;28;20201;-84
2022/09/30 03:25:13;;;;;;;2.72;1.63;;;;;;;;;;5025521;28;20214;-84
2022/09/30 03:27:54;;;;;;;1.65;1.55;;;;;;;;;;5044279;28;20644;-84
2022/09/30 03:30:25;;;;;;;2.00;1.90;;;;;;;;;;5036393;28;20202;-83
2022/09/30 03:33:06;;;;;;;1.33;1.33;;;;;;;;;;5034941;28;20198;-84
2022/09/30 03:35:45;;;;;;;1.33;1.23;;;;;;;;;;5028282;28;20204;-84
2022/09/30 03:38:22;;;;;;;1.67;1.58;;;;;;;;;;5035517;28;20265;-85
2022/09/30 03:40:59;;;;;;;1.73;1.63;;;;;;;;;;5026438;28;20206;-83
2022/09/30 03:43:31;;;;;;;1.70;1.60;;;;;;;;;;5034497;28;20326;-85
2022/09/30 03:46:04;;;;;;;1.60;1.50;;;;;;;;;;5041008;28;20220;-84
2022/09/30 03:48:32;;;;;;;1.77;1.67;;;;;;;;;;5036970;28;20226;-84
2022/09/30 03:51:01;;;;;;;1.38;1.30;;;;;;;;;;5044746;28;20207;-83
2022/09/30 03:53:29;;;;;;;1.83;1.73;;;;;;;;;;5039454;28;20214;-83
2022/09/30 03:55:56;;;;;;;1.77;1.67;;;;;;;;;;5037860;28;20198;-83
2022/09/30 03:58:25;;;;;;;1.48;1.38;;;;;;;;;;5039991;28;20656;-84
2022/09/30 04:00:55;;;;;;;1.73;1.63;;;;;;;;;;5042439;28;20225;-83
2022/09/30 04:03:26;;;;;;;2.17;2.08;;;;;;;;;;5028214;28;20203;-83
2022/09/30 04:05:54;;;;;;;1.90;1.80;;;;;;;;;;5042665;28;20207;-83
2022/09/30 04:08:23;;;;;;;1.95;1.83;;;;;;;;;;5040608;28;20249;-84
2022/09/30 04:10:50;;;;;;;2.00;1.77;;;;;;;;;;5033014;28;20198;-83
2022/09/30 04:13:18;;;;;;;1.73;1.63;;;;;;;;;;5021010;28;20194;-84
2022/09/30 04:15:52;;;;;;;2.00;1.90;;;;;;;;;;5040461;28;20202;-83
2022/09/30 04:18:20;;;;;;;1.60;1.50;;;;;;;;;;5034674;28;20596;-84
2022/09/30 04:20:47;;;;;;;1.83;1.73;;;;;;;;;;5034549;28;20237;-83
2022/09/30 04:23:15;;;;;;;1.67;1.58;;;;;;;;;;5040138;28;20198;-84
2022/09/30 04:25:49;;;;;;;1.45;1.35;;;;;;;;;;5034018;28;20194;-83
2022/09/30 04:28:17;;;;;;;1.67;1.58;;;;;;;;;;5023295;28;20201;-83
2022/09/30 04:30:44;;;;;;;2.00;1.90;;;;;;;;;;5033579;28;20648;-83
2022/09/30 04:33:12;;;;;;;1.25;1.23;;;;;;;;;;5031895;28;20206;-84
2022/09/30 04:35:40;;;;;;;1.60;1.50;;;;;;;;;;5044576;28;20202;-84
2022/09/30 04:38:07;;;;;;;2.15;1.83;;;;;;;;;;5034266;28;20222;-83
2022/09/30 04:40:37;;;;;;;1.85;1.75;;;;;;;;;;5033978;28;20210;-84
2022/09/30 04:43:07;;;;;;;1.50;1.40;;;;;;;;;;5033741;28;20205;-83
2022/09/30 04:45:34;;;;;;;1.75;1.65;;;;;;;;;;5033468;28;20293;-83
2022/09/30 04:48:02;;;;;;;1.52;1.42;;;;;;;;;;5033414;28;20204;-84
2022/09/30 04:50:30;;;;;;;1.30;1.20;;;;;;;;;;5037614;28;20198;-83
2022/09/30 04:52:57;;;;;;;1.23;1.23;;;;;;;;;;5035719;28;20202;-84
2022/09/30 04:55:25;;;;;;;1.52;1.42;;;;;;;;;;5050818;28;20840;-85
2022/09/30 04:57:52;;;;;;;1.70;1.60;;;;;;;;;;5046323;28;20194;-84
2022/09/30 05:00:21;;;;;;;1.30;1.30;;;;;;;;;;5038337;28;20288;-84
2022/09/30 05:02:49;;;;;;;1.92;1.83;;;;;;;;;;5032861;28;20252;-84
2022/09/30 05:05:16;;;;;;;2.67;2.47;;;;;;;;;;5038095;28;20252;-79
2022/09/30 05:07:44;;;;;;;1.27;1.27;;;;;;;;;;5043584;28;20285;-79
2022/09/30 05:10:12;;;;;;;1.70;1.60;;;;;;;;;;5031243;28;20729;-80
2022/09/30 05:12:40;;;;;;;2.58;1.85;;;;;;;;;;5041344;28;20197;-79
2022/09/30 05:15:09;;;;;;;1.58;1.48;;;;;;;;;;5032519;28;20222;-79
2022/09/30 05:17:38;;;;;;;1.70;1.60;;;;;;;;;;5021524;28;20285;-79
2022/09/30 05:20:09;;;;;;;1.58;1.48;;;;;;;;;;5030667;28;20226;-79
2022/09/30 05:22:37;;;;;;;2.47;2.28;;;;;;;;;;5043749;28;20204;-79
2022/09/30 05:25:06;;;;;;;3.03;2.55;;;;;;;;;;5029618;28;20228;-79
2022/09/30 05:27:33;;;;;;;2.55;2.35;;;;;;;;;;5030093;28;20203;-79
2022/09/30 05:30:01;;;;;;;1.52;1.50;;;;;;;;;;5029360;28;20209;-81
2022/09/30 05:32:30;;;;;;;1.73;1.63;;;;;;;;;;5038810;28;20205;-80
2022/09/30 05:35:00;;;;;;;1.30;1.30;;;;;;;;;;5032788;28;20231;-80
2022/09/30 05:37:27;;;;;;;1.80;1.70;;;;;;;;;;5041342;28;20777;-80
2022/09/30 05:39:55;;;;;;;1.40;1.30;;;;;;;;;;5031594;28;20615;-80
2022/09/30 05:42:23;;;;;;;2.33;2.13;;;;;;;;;;5028901;28;20644;-80
2022/09/30 05:44:50;;;;;;;1.50;1.40;;;;;;;;;;5030556;28;20232;-80
2022/09/30 05:47:17;;;;;;;1.60;1.50;;;;;;;;;;5037619;28;20199;-80
2022/09/30 05:49:45;;;;;;;1.75;1.65;;;;;;;;;;5014286;28;20277;-80
2022/09/30 05:52:14;;;;;;;1.88;1.77;;;;;;;;;;5036535;28;20194;-80
2022/09/30 05:54:41;;;;;;;1.55;1.45;;;;;;;;;;5028608;28;20309;-80
2022/09/30 05:57:09;;;;;;;1.35;1.30;;;;;;;;;;5031419;28;20289;-79
2022/09/30 05:59:37;;;;;;;1.52;1.42;;;;;;;;;;5030689;28;20222;-79
2022/09/30 06:02:05;;;;;;;1.08;1.08;;;;;;;;;;5031972;28;20198;-80
2022/09/30 06:04:32;;;;;;;1.23;1.23;;;;;;;;;;5039517;28;20226;-80
2022/09/30 06:07:00;;;;;;;1.20;1.20;;;;;;;;;;5040710;28;20193;-81
2022/09/30 06:09:28;;;;;;;1.67;1.30;;;;;;;;;;5047547;28;20197;-80
2022/09/30 06:11:57;;;;;;;1.27;1.25;;;;;;;;;;5030734;28;20289;-80
2022/09/30 06:14:27;;;;;;;1.00;1.00;;;;;;;;;;5034076;28;20268;-80
2022/09/30 06:16:54;;;;;;;1.45;1.35;;;;;;;;;;5026447;28;20215;-79
2022/09/30 06:19:22;;;;;;;1.00;1.00;;;;;;;;;;5024538;28;20218;-79
2022/09/30 06:21:49;;;;;;;1.75;1.65;;;;;;;;;;5030715;28;20213;-80
2022/09/30 06:24:17;;;;;;;1.40;1.33;;;;;;;;;;5037830;28;20221;-79
2022/09/30 06:26:46;;;;;;;1.50;1.40;;;;;;;;;;5043276;28;20661;-80
2022/09/30 06:29:13;;;;;;;1.70;1.60;;;;;;;;;;5031877;28;20631;-80
2022/09/30 06:31:41;;;;;;;1.30;1.30;;;;;;;;;;5038582;28;20301;-80
2022/09/30 06:34:09;;;;;;;1.33;1.23;;;;;;;;;;5020091;28;20240;-79
2022/09/30 06:36:36;;;;;;;1.13;1.13;;;;;;;;;;5026102;28;20565;-80
2022/09/30 06:39:04;;;;;;;1.70;1.60;;;;;;;;;;5034978;28;20885;-79
2022/09/30 06:41:32;;;;;;;1.40;1.30;;;;;;;;;;5026719;28;20589;-79
2022/09/30 06:44:01;;;;;;;1.38;1.38;;;;;;;;;;5030648;28;20341;-79
2022/09/30 06:46:29;;;;;;;1.60;1.50;;;;;;;;;;5026338;28;20588;-80
2022/09/30 06:48:57;;;;;;;1.40;1.40;;;;;;;;;;5033649;28;20289;-81
2022/09/30 06:51:25;;;;;;;2.47;2.33;;;;;;;;;;5034587;28;20208;-80
2022/09/30 06:53:54;;;;;;;1.92;1.83;;;;;;;;;;5039140;28;20229;-79
2022/09/30 06:56:22;;;;;;;1.90;1.80;;;;;;;;;;5039633;28;20221;-80
2022/09/30 06:58:49;;;;;;;2.40;2.20;;;;;;;;;;5031236;28;20200;-80
2022/09/30 07:01:19;;;;;;;2.35;2.15;;;;;;;;;;5030235;28;20303;-79
2022/09/30 07:03:48;;;;;;;2.40;2.20;;;;;;;;;;5027869;28;20246;-81
2022/09/30 07:06:16;;;;;;;1.88;1.77;;;;;;;;;;5040405;28;20195;-83
2022/09/30 07:08:43;;;;;;;1.80;1.70;;;;;;;;;;5043870;28;20691;-81
2022/09/30 07:11:14;;;;;;;2.35;2.15;;;;;;;;;;5024971;28;20205;-82
2022/09/30 07:13:44;;;;;;;2.33;2.13;;;;;;;;;;5015468;28;20227;-80
2022/09/30 07:16:12;;;;;;;2.33;2.20;;;;;;;;;;5032588;28;20619;-80
2022/09/30 07:18:42;;;;;;;1.83;1.73;;;;;;;;;;5036338;28;20246;-80
2022/09/30 07:21:12;;;;;;;2.30;2.05;;;;;;;;;;5041366;28;20229;-81
2022/09/30 07:23:46;;;;;;;2.60;2.40;;;;;;;;;;5029855;28;20218;-80
2022/09/30 07:26:15;;;;;;;2.60;2.40;;;;;;;;;;5024311;28;20259;-80
2022/09/30 07:28:43;;;;;;;2.30;2.10;;;;;;;;;;5027323;28;20663;-81
2022/09/30 07:31:15;;;;;;;2.13;2.03;;;;;;;;;;5034623;28;20199;-80
2022/09/30 07:33:45;;;;;;;2.40;2.20;;;;;;;;;;5029825;28;20230;-80
2022/09/30 07:36:17;;;;;;;2.78;2.58;;;;;;;;;;5040053;28;20201;-80
2022/09/30 07:38:46;;;;;;;1.95;1.85;;;;;;;;;;5036905;28;20233;-80
2022/09/30 07:41:16;;;;;;;2.17;1.98;;;;;;;;;;5041038;28;20225;-80
2022/09/30 07:43:47;;;;;;;1.70;1.60;;;;;;;;;;5052159;28;20693;-79
2022/09/30 07:46:19;;;;;;;1.88;1.77;;;;;;;;;;5043049;28;20593;-80
2022/09/30 07:48:50;;;;;;;1.70;1.60;;;;;;;;;;5032778;28;20213;-80
2022/09/30 07:51:22;;;;;;;2.88;2.58;;;;;;;;;;5026639;28;20209;-80
2022/09/30 07:53:52;;;;;;;2.45;2.25;;;;;;;;;;5035695;28;20698;-80
2022/09/30 07:56:21;;;;;;;2.00;1.90;;;;;;;;;;5043174;28;20197;-80
2022/09/30 07:58:49;;;;;;;2.45;2.25;;;;;;;;;;5026005;28;20203;-80
2022/09/30 08:01:16;;;;;;;2.83;2.53;;;;;;;;;;5023258;28;20690;-81
2022/09/30 08:03:44;;;;;;;2.83;2.63;;;;;;;;;;5042436;28;20371;-80
2022/09/30 08:06:17;;;;;;;2.20;2.10;;;;;;;;;;5038041;28;20234;-80
2022/09/30 08:08:46;;;;;;;2.40;2.20;;;;;;;;;;5041745;28;20198;-80
2022/09/30 08:11:15;;;;;;;1.83;1.73;;;;;;;;;;5030361;28;20210;-81
2022/09/30 08:13:42;;;;;;;1.85;1.70;;;;;;;;;;5041545;28;20222;-80
2022/09/30 08:16:10;;;;;;;1.80;1.70;;;;;;;;;;5046765;28;20200;-81
2022/09/30 08:18:37;;;;;;;1.80;1.70;;;;;;;;;;5016644;28;20232;-80
2022/09/30 08:21:06;;;;;;;2.22;2.08;;;;;;;;;;5030849;28;20673;-81
2022/09/30 08:23:35;;;;;;;7.03;2.78;;;;;;;;;;5042202;28;20598;-81
2022/09/30 08:26:04;;;;;;;3.13;2.92;;;;;;;;;;5025448;28;20261;-81
2022/09/30 08:28:32;;;;;;;2.83;2.63;;;;;;;;;;5039226;28;20703;-82
2022/09/30 08:31:07;;;;;;;2.33;2.22;;;;;;;;;;5029552;28;20684;-81
2022/09/30 08:33:35;;;;;;;2.53;2.40;;;;;;;;;;5030852;28;20228;-81
2022/09/30 08:36:05;;;;;;;2.50;2.30;;;;;;;;;;5035269;28;20241;-81
2022/09/30 08:38:34;;;;;;;2.47;2.38;;;;;;;;;;5037438;28;20207;-82
2022/09/30 08:41:17;;;;;;;1.73;1.63;;;;;;;;;;5040844;28;20706;-81
2022/09/30 08:43:54;;;;;;;2.17;2.00;;;;;;;;;;5040945;28;20232;-81
2022/09/30 08:46:33;;;;;;;2.10;2.00;;;;;;;;;;5035017;28;20202;-81
2022/09/30 08:49:06;;;;;;;3.25;2.95;;;;;;;;;;5025364;28;20209;-81
2022/09/30 08:51:37;;;;;;;4.40;4.00;;;;;;;;;;5020147;28;20199;-82
2022/09/30 08:54:14;;;;;;;3.10;2.90;;;;;;;;;;5030932;28;20219;-81
2022/09/30 08:56:42;;;;;;;3.60;3.30;;;;;;;;;;5019381;28;20293;-81
2022/09/30 08:59:21;;;;;;;3.25;2.30;;;;;;;;;;5020728;28;20213;-82
2022/09/30 09:01:53;;;;;;;2.75;2.55;;;;;;;;;;5029419;28;20218;-82
2022/09/30 09:04:21;;;;;;;4.03;3.72;;;;;;;;;;5030497;28;20222;-82
2022/09/30 09:06:53;;;;;;;3.17;2.97;;;;;;;;;;5025461;28;20686;-81
2022/09/30 09:09:35;;;;;;;3.22;2.60;;;;;;;;;;5036236;28;20215;-82
2022/09/30 09:12:17;;;;;;;3.33;3.03;;;;;;;;;;5035429;28;20202;-82
2022/09/30 09:15:03;;;;;;;4.20;3.80;;;;;;;;;;5032127;28;20592;-81
2022/09/30 09:17:43;;;;;;;5.70;5.00;;;;;;;;;;5030084;28;20206;-81
2022/09/30 09:20:15;;;;;;;4.47;4.07;;;;;;;;;;5012385;28;20194;-82
2022/09/30 09:22:43;;;;;;;5.15;4.65;;;;;;;;;;5024437;28;20233;-82
2022/09/30 09:25:16;;;;;;;3.70;3.35;;;;;;;;;;5032565;28;20221;-82
2022/09/30 09:27:51;;;;;;;2.72;2.53;;;;;;;;;;5034437;28;20712;-82
2022/09/30 09:30:22;;;;;;;3.88;3.35;;;;;;;;;;5015455;28;20642;-81
2022/09/30 09:32:55;;;;;;;4.30;3.90;;;;;;;;;;5023556;28;20197;-82
2022/09/30 09:35:36;;;;;;;4.03;3.72;;;;;;;;;;5031023;28;20272;-82
2022/09/30 09:38:25;;;;;;;4.07;3.78;;;;;;;;;;5040129;28;20200;-82
2022/09/30 09:41:07;;;;;;;4.50;4.10;;;;;;;;;;5020709;28;20317;-83
2022/09/30 09:43:48;;;;;;;4.28;3.85;;;;;;;;;;5013650;28;20301;-82
2022/09/30 09:46:21;;;;;;;3.40;3.10;;;;;;;;;;5016668;28;20229;-82
2022/09/30 09:48:49;;;;;;;4.25;3.85;;;;;;;;;;5038719;28;20208;-82
2022/09/30 09:51:24;;;;;;;3.50;3.20;;;;;;;;;;5036247;28;20199;-83
2022/09/30 09:53:56;;;;;;;5.45;4.95;;;;;;;;;;5040093;28;20221;-82
2022/09/30 09:56:30;;;;;;;5.22;4.72;;;;;;;;;;5035782;28;20256;-82
2022/09/30 09:59:13;;;;;;;5.13;4.63;;;;;;;;;;5035570;28;20683;-82
2022/09/30 10:01:43;;;;;;;4.80;4.40;;;;;;;;;;5020907;28;20628;-82
2022/09/30 10:04:18;;;;;;;4.65;4.15;;;;;;;;;;5025627;28;20214;-83
2022/09/30 10:06:55;;;;;;;4.45;4.05;;;;;;;;;;5035919;28;20209;-82
2022/09/30 10:09:29;;;;;;;4.60;4.20;;;;;;;;;;5028050;28;20282;-82
2022/09/30 10:12:31;;;;;;;4.97;4.57;;;;;;;;;;5031063;28;20508;-84
2022/09/30 10:15:03;;;;;;;5.57;5.15;;;;;;;;;;5012740;28;20218;-82
2022/09/30 10:17:33;;;;;;;3.97;3.67;;;;;;;;;;5036332;28;20213;-82
2022/09/30 10:20:06;;;;;;;4.13;3.72;;;;;;;;;;5034399;28;20940;-82
2022/09/30 10:22:35;;;;;;;4.30;3.90;;;;;;;;;;5031484;28;20220;-83
2022/09/30 10:25:22;;;;;;;4.25;3.95;;;;;;;;;;5012018;28;20218;-84
2022/09/30 10:27:58;;;;;;;4.05;3.75;;;;;;;;;;5036508;28;20217;-83
2022/09/30 10:30:42;;;;;;;4.68;4.28;;;;;;;;;;5032505;28;20221;-84
2022/09/30 10:33:24;;;;;;;4.05;3.75;;;;;;;;;;5016797;28;20201;-84
2022/09/30 10:36:04;;;;;;;3.15;2.85;;;;;;;;;;5016652;28;20209;-83
2022/09/30 10:38:33;;;;;;;3.35;3.15;;;;;;;;;;5040953;28;20193;-83
2022/09/30 10:41:02;;;;;;;3.45;3.22;;;;;;;;;;5025042;28;20198;-84
2022/09/30 10:43:38;;;;;;;3.97;3.60;;;;;;;;;;5018340;28;20222;-83
2022/09/30 10:46:07;;;;;;;4.68;4.28;;;;;;;;;;5034241;28;20213;-84
2022/09/30 10:48:37;;;;;;;4.22;3.90;;;;;;;;;;5031892;28;20282;-84
2022/09/30 10:51:05;;;;;;;2.95;2.75;;;;;;;;;;5036316;28;20215;-83
2022/09/30 10:53:34;;;;;;;3.72;3.25;;;;;;;;;;5039716;28;20689;-84
2022/09/30 10:56:04;;;;;;;2.90;2.70;;;;;;;;;;5024819;28;20300;-85
2022/09/30 10:58:49;;;;;;;3.38;3.08;;;;;;;;;;5034382;28;20580;-85
2022/09/30 11:01:24;;;;;;;4.25;3.85;;;;;;;;;;5041974;28;20206;-85
2022/09/30 11:04:01;;;;;;;3.60;3.30;;;;;;;;;;5043938;28;20224;-86
2022/09/30 11:06:32;;;;;;;3.65;3.35;;;;;;;;;;5024016;28;20214;-85
2022/09/30 11:09:06;;;;;;;4.25;3.80;;;;;;;;;;5040792;28;20294;-86
2022/09/30 11:11:39;;;;;;;4.95;4.63;;;;;;;;;;5038121;28;20208;-85
2022/09/30 11:14:27;;;;;;;3.92;3.67;;;;;;;;;;5035121;28;20215;-85
2022/09/30 11:17:05;;;;;;;4.43;4.03;;;;;;;;;;5033093;28;20306;-86
2022/09/30 11:19:39;;;;;;;4.13;3.72;;;;;;;;;;5032278;28;20316;-86
2022/09/30 11:22:28;;;;;;;3.53;3.33;;;;;;;;;;5033620;28;20307;-86
2022/09/30 11:24:57;;;;;;;2.85;2.65;;;;;;;;;;5034448;28;20218;-88
2022/09/30 11:27:35;;;;;;;2.60;2.40;;;;;;;;;;5033119;28;20211;-88
2022/09/30 11:30:12;;;;;;;1.92;1.83;;;;;;;;;;5034642;28;20408;-83
2022/09/30 11:32:56;;;;;;;2.88;2.15;;;;;;;;;;5042357;28;20198;-84
2022/09/30 11:35:40;;;;;;;1.92;1.58;;;;;;;;;;5042601;28;20313;-85
2022/09/30 11:38:21;;;;;;;3.00;1.10;;;;;;;;;;5014346;28;20269;-84
2022/09/30 11:40:56;;;;;;;1.77;1.67;;;;;;;;;;5024429;28;20293;-88
2022/09/30 11:43:33;;;;;;;1.35;1.25;;;;;;;;;;5033552;28;20243;-87
2022/09/30 11:46:23;;;;;;;1.35;1.25;;;;;;;;;;5036386;28;20221;-87
2022/09/30 11:49:22;;;;;;;1.40;1.30;;;;;;;;;;5044259;28;20245;-89
2022/09/30 11:51:59;;;;;;;1.58;1.27;;;;;;;;;;5038257;28;20249;-89
2022/09/30 11:54:39;;;;;;;1.70;1.60;;;;;;;;;;5033564;28;20709;-87
2022/09/30 11:57:13;;;;;;;3.75;2.40;;;;;;;;;;5034014;28;20206;-87
2022/09/30 11:59:46;;;;;;;2.97;1.95;;;;;;;;;;5032392;28;20727;-86
2022/09/30 12:02:30;;;;;;;1.45;1.35;;;;;;;;;;5032440;28;20321;-89
2022/09/30 12:05:02;;;;;;;2.10;1.90;;;;;;;;;;5035739;28;20233;-87
2022/09/30 12:07:38;;;;;;;1.50;1.40;;;;;;;;;;5042857;28;20255;-85
2022/09/30 12:10:19;;;;;;;1.30;1.20;;;;;;;;;;5033225;28;20676;-85
2022/09/30 12:12:48;;;;;;;2.55;1.85;;;;;;;;;;5033428;28;20202;-84
2022/09/30 12:15:17;;;;;;;1.50;1.40;;;;;;;;;;5032300;28;20230;-85
2022/09/30 12:17:48;;;;;;;1.33;1.23;;;;;;;;;;5034331;28;20195;-85
2022/09/30 12:20:25;;;;;;;1.60;1.50;;;;;;;;;;5034269;28;20233;-84
2022/09/30 12:22:54;;;;;;;1.75;1.42;;;;;;;;;;5028532;28;20222;-83
2022/09/30 12:25:24;;;;;;;1.75;1.63;;;;;;;;;;5032794;28;20228;-83
2022/09/30 12:27:57;;;;;;;1.90;1.77;;;;;;;;;;5041949;28;20197;-86
2022/09/30 12:30:24;;;;;;;1.38;1.27;;;;;;;;;;5032473;28;20191;-86
2022/09/30 12:33:21;;;;;;;1.30;1.20;;;;;;;;;;5032780;28;20627;-87
2022/09/30 12:36:27;;;;;;;1.77;1.25;;;;;;;;;;5031986;28;20203;-86
2022/09/30 12:39:32;;;;;;;0.80;0.80;;;;;;;;;;5011689;28;20300;-87
2022/09/30 12:42:15;;;;;;;1.25;1.15;;;;;;;;;;5033370;28;20202;-87
2022/09/30 12:45:37;;;;;;;2.28;2.17;;;;;;;;;;5013608;28;20310;-83
2022/09/30 12:48:07;;;;;;;2.05;1.63;;;;;;;;;;4996081;28;20286;-84
2022/09/30 12:50:43;;;;;;;1.48;1.38;;;;;;;;;;5007923;28;20189;-84
2022/09/30 12:53:17;;;;;;;1.35;1.30;;;;;;;;;;5012128;28;20209;-83
2022/09/30 12:55:45;;;;;;;0.90;0.90;;;;;;;;;;5032836;28;20658;-83
2022/09/30 12:58:22;;;;;;;1.15;1.15;;;;;;;;;;5033097;28;20289;-84
2022/09/30 13:01:05;;;;;;;1.00;1.00;;;;;;;;;;5032786;28;20221;-84
2022/09/30 13:03:47;;;;;;;0.73;0.73;;;;;;;;;;5029739;28;20241;-84
2022/09/30 13:06:18;;;;;;;0.98;0.98;;;;;;;;;;5042111;28;20213;-84
2022/09/30 13:09:17;;;;;;;1.30;1.20;;;;;;;;;;5027901;28;20285;-84
2022/09/30 13:11:46;;;;;;;1.70;1.60;;;;;;;;;;5033609;28;20198;-85
2022/09/30 13:14:33;;;;;;;1.15;1.05;;;;;;;;;;5034339;28;20229;-86
2022/09/30 13:17:26;;;;;;;1.45;1.20;;;;;;;;;;5030046;28;20264;-87
2022/09/30 13:19:56;;;;;;;1.05;1.05;;;;;;;;;;5028529;28;20285;-86
2022/09/30 13:23:00;;;;;;;1.70;1.60;;;;;;;;;;5035819;28;20202;-87
2022/09/30 13:25:28;;;;;;;1.50;1.40;;;;;;;;;;5032730;28;20249;-86
2022/09/30 13:28:30;;;;;;;2.47;2.15;;;;;;;;;;5038323;28;20246;-85
2022/09/30 13:31:17;;;;;;;1.83;1.73;;;;;;;;;;5030048;28;20285;-85
2022/09/30 13:33:48;;;;;;;2.20;1.92;;;;;;;;;;5019213;28;20372;-85
2022/09/30 13:36:27;;;;;;;2.70;1.80;;;;;;;;;;5031050;28;20663;-87
2022/09/30 13:39:20;;;;;;;1.92;1.77;;;;;;;;;;5032797;28;20208;-86
2022/09/30 13:42:10;;;;;;;1.30;1.27;;;;;;;;;;5032769;28;20218;-85
2022/09/30 13:45:00;;;;;;;1.40;1.30;;;;;;;;;;5032288;28;20226;-84
2022/09/30 13:47:32;;;;;;;2.00;1.83;;;;;;;;;;5040156;28;20203;-84
2022/09/30 13:50:06;;;;;;;1.95;1.85;;;;;;;;;;5029953;28;20708;-83
2022/09/30 13:52:37;;;;;;;1.75;1.65;;;;;;;;;;5032469;28;20202;-83
2022/09/30 13:55:13;;;;;;;2.75;1.88;;;;;;;;;;5030175;28;20677;-83
2022/09/30 13:57:47;;;;;;;2.17;1.77;;;;;;;;;;5026039;28;20285;-85
2022/09/30 14:00:17;;;;;;;1.13;1.10;;;;;;;;;;5031579;28;20575;-84
2022/09/30 14:03:14;;;;;;;0.90;0.90;;;;;;;;;;5032122;28;20293;-84
2022/09/30 14:05:55;;;;;;;4.00;1.40;;;;;;;;;;5023205;28;20248;-84
2022/09/30 14:09:01;;;;;;;1.60;1.20;;;;;;;;;;5031317;28;20221;-84
2022/09/30 14:12:11;;;;;;;0.90;0.90;;;;;;;;;;5027554;28;20285;-84
2022/09/30 14:15:11;;;;;;;1.10;1.10;;;;;;;;;;5032148;28;20222;-85
2022/09/30 14:17:57;;;;;;;1.35;1.25;;;;;;;;;;5032052;28;20186;-84
2022/09/30 14:20:37;;;;;;;1.00;1.00;;;;;;;;;;5032010;28;20614;-85
2022/09/30 14:23:11;;;;;;;1.10;1.00;;;;;;;;;;5031684;28;20199;-85
2022/09/30 14:25:45;;;;;;;1.10;1.10;;;;;;;;;;5032007;28;20210;-84
2022/09/30 14:28:16;;;;;;;0.95;0.95;;;;;;;;;;5030038;28;20665;-84
2022/09/30 14:31:06;;;;;;;1.38;1.20;;;;;;;;;;5043609;28;20216;-84
2022/09/30 14:33:33;;;;;;;0.70;0.70;;;;;;;;;;5051481;28;20222;-84
2022/09/30 14:36:03;;;;;;;0.70;0.70;;;;;;;;;;5037624;28;20204;-84
2022/09/30 14:38:32;;;;;;;0.85;0.85;;;;;;;;;;5031296;28;20204;-84
2022/09/30 14:41:08;;;;;;;0.50;0.50;;;;;;;;;;5031569;28;20691;-83
2022/09/30 14:43:41;;;;;;;0.95;0.95;;;;;;;;;;5024306;28;20220;-83
2022/09/30 14:46:23;;;;;;;1.25;1.15;;;;;;;;;;5032220;28;20613;-84
2022/09/30 14:48:51;;;;;;;0.90;0.90;;;;;;;;;;5040247;28;20197;-83
2022/09/30 14:51:20;;;;;;;0.90;0.90;;;;;;;;;;5046658;28;20211;-84
2022/09/30 14:53:55;;;;;;;1.17;1.15;;;;;;;;;;5039667;28;20248;-84
2022/09/30 14:56:29;;;;;;;0.85;0.85;;;;;;;;;;5036323;28;20205;-83
2022/09/30 14:58:59;;;;;;;1.00;0.90;;;;;;;;;;5038841;28;20252;-83
2022/09/30 15:01:30;;;;;;;0.82;0.70;;;;;;;;;;5040648;28;20195;-83
2022/09/30 15:04:00;;;;;;;1.02;0.88;;;;;;;;;;5035885;28;20977;-83
2022/09/30 15:06:30;;;;;;;1.48;1.10;;;;;;;;;;5044952;28;20203;-83
2022/09/30 15:09:03;;;;;;;0.90;0.90;;;;;;;;;;5035138;28;20204;-82
2022/09/30 15:11:31;;;;;;;0.98;0.98;;;;;;;;;;5041090;28;20194;-84
2022/09/30 15:14:05;;;;;;;0.90;0.90;;;;;;;;;;5042877;28;20599;-83
2022/09/30 15:16:33;;;;;;;0.93;0.85;;;;;;;;;;5037681;28;20310;-84
2022/09/30 15:19:01;;;;;;;1.42;0.98;;;;;;;;;;5032044;28;20286;-83
2022/09/30 15:21:31;;;;;;;0.85;0.85;;;;;;;;;;5034382;28;20233;-84
2022/09/30 15:24:01;;;;;;;0.85;0.82;;;;;;;;;;5045767;28;20816;-83